Tampa, Florida
Traffic Map
Current Weather Conditions
Tampa, Florida
Clear
Clear
25°
Feels Like: 26°
Wind Chill: 25° Ceiling: Unl
Heat Index: 26° Visibility: 10mi
Dew Point: 22° Wind: 3mph
Humidity: 82% Direction: 90° (E)
Pressure: 30.1in Gusts: 0mph
Raw Report DataKTPA 310953Z 09003KT 10SM CLR 25/22 A3010 RMK AO2 SLP192 T02500217
Traffic Incident Summary
Active as of:
Severity:
Category:
InformationThere was an issue retrieving the traffic information for this location. Please try a different location or try again shortly.
Advertisements
Track Severe Weather on mobile